sensor_id;sensor_type;location;lat;lon;timestamp;temperature;humidity
46784;DHT22;32544;52.832;13.816;2024-03-08T00:00:27;23.00;44.60
46784;DHT22;32544;52.832;13.816;2024-03-08T00:01:28;23.00;44.60
46784;DHT22;32544;52.832;13.816;2024-03-08T00:02:29;23.00;44.60
46784;DHT22;32544;52.832;13.816;2024-03-08T00:03:29;23.00;44.60
46784;DHT22;32544;52.832;13.816;2024-03-08T00:04:30;22.90;44.60
46784;DHT22;32544;52.832;13.816;2024-03-08T00:05:31;22.90;44.60
46784;DHT22;32544;52.832;13.816;2024-03-08T00:06:32;22.90;44.70
46784;DHT22;32544;52.832;13.816;2024-03-08T00:07:32;22.90;44.70
46784;DHT22;32544;52.832;13.816;2024-03-08T00:08:33;22.90;44.70
46784;DHT22;32544;52.832;13.816;2024-03-08T00:09:34;22.90;44.80
46784;DHT22;32544;52.832;13.816;2024-03-08T00:10:34;22.90;44.80
46784;DHT22;32544;52.832;13.816;2024-03-08T00:11:35;22.90;44.80
46784;DHT22;32544;52.832;13.816;2024-03-08T00:12:35;22.90;44.80
46784;DHT22;32544;52.832;13.816;2024-03-08T00:13:36;22.90;44.80
46784;DHT22;32544;52.832;13.816;2024-03-08T00:14:37;22.90;44.90
46784;DHT22;32544;52.832;13.816;2024-03-08T00:15:37;22.90;44.90
46784;DHT22;32544;52.832;13.816;2024-03-08T00:16:38;22.90;44.90
46784;DHT22;32544;52.832;13.816;2024-03-08T00:17:39;22.90;44.90
46784;DHT22;32544;52.832;13.816;2024-03-08T00:18:39;22.80;44.90
46784;DHT22;32544;52.832;13.816;2024-03-08T00:19:40;22.80;44.90
46784;DHT22;32544;52.832;13.816;2024-03-08T00:20:41;22.80;44.90
46784;DHT22;32544;52.832;13.816;2024-03-08T00:21:42;22.80;44.90
46784;DHT22;32544;52.832;13.816;2024-03-08T00:22:43;22.80;44.80
46784;DHT22;32544;52.832;13.816;2024-03-08T00:23:44;22.80;44.70
46784;DHT22;32544;52.832;13.816;2024-03-08T00:24:44;22.80;44.80
46784;DHT22;32544;52.832;13.816;2024-03-08T00:25:45;22.80;44.70
46784;DHT22;32544;52.832;13.816;2024-03-08T00:26:46;22.80;44.70
46784;DHT22;32544;52.832;13.816;2024-03-08T00:27:46;22.80;44.70
46784;DHT22;32544;52.832;13.816;2024-03-08T00:28:49;22.80;44.80
46784;DHT22;32544;52.832;13.816;2024-03-08T00:29:50;22.80;44.70
46784;DHT22;32544;52.832;13.816;2024-03-08T00:30:50;22.80;44.70
46784;DHT22;32544;52.832;13.816;2024-03-08T00:31:51;22.80;44.70
46784;DHT22;32544;52.832;13.816;2024-03-08T00:32:51;22.80;44.90
46784;DHT22;32544;52.832;13.816;2024-03-08T00:33:52;22.80;44.80
46784;DHT22;32544;52.832;13.816;2024-03-08T00:34:56;22.80;44.80
46784;DHT22;32544;52.832;13.816;2024-03-08T00:35:56;22.80;44.80
46784;DHT22;32544;52.832;13.816;2024-03-08T00:36:57;22.80;44.90
46784;DHT22;32544;52.832;13.816;2024-03-08T00:37:58;22.70;44.80
46784;DHT22;32544;52.832;13.816;2024-03-08T00:38:59;22.80;45.00
46784;DHT22;32544;52.832;13.816;2024-03-08T00:40:01;22.80;44.90
46784;DHT22;32544;52.832;13.816;2024-03-08T00:41:01;22.70;44.80
46784;DHT22;32544;52.832;13.816;2024-03-08T00:42:02;22.70;44.80
46784;DHT22;32544;52.832;13.816;2024-03-08T00:43:03;22.70;44.90
46784;DHT22;32544;52.832;13.816;2024-03-08T00:44:04;22.80;45.00
46784;DHT22;32544;52.832;13.816;2024-03-08T00:45:05;22.70;44.90
46784;DHT22;32544;52.832;13.816;2024-03-08T00:46:06;22.70;44.90
46784;DHT22;32544;52.832;13.816;2024-03-08T00:47:06;22.70;45.00
46784;DHT22;32544;52.832;13.816;2024-03-08T00:48:07;22.70;44.90
46784;DHT22;32544;52.832;13.816;2024-03-08T00:49:07;22.70;45.00
46784;DHT22;32544;52.832;13.816;2024-03-08T00:50:08;22.70;45.00
46784;DHT22;32544;52.832;13.816;2024-03-08T00:51:08;22.70;45.00
46784;DHT22;32544;52.832;13.816;2024-03-08T00:52:09;22.70;45.00
46784;DHT22;32544;52.832;13.816;2024-03-08T00:53:10;22.70;45.00
46784;DHT22;32544;52.832;13.816;2024-03-08T00:54:11;22.80;45.10
46784;DHT22;32544;52.832;13.816;2024-03-08T00:55:12;22.70;45.10
46784;DHT22;32544;52.832;13.816;2024-03-08T00:56:12;22.70;45.00
46784;DHT22;32544;52.832;13.816;2024-03-08T00:57:13;22.70;45.00
46784;DHT22;32544;52.832;13.816;2024-03-08T00:58:13;22.70;45.00
46784;DHT22;32544;52.832;13.816;2024-03-08T00:59:14;22.70;45.00
46784;DHT22;32544;52.832;13.816;2024-03-08T01:00:14;22.70;45.00
46784;DHT22;32544;52.832;13.816;2024-03-08T01:01:15;22.70;45.10
46784;DHT22;32544;52.832;13.816;2024-03-08T01:02:18;22.70;45.10
46784;DHT22;32544;52.832;13.816;2024-03-08T01:03:19;22.70;45.10
46784;DHT22;32544;52.832;13.816;2024-03-08T01:04:20;22.70;45.10
46784;DHT22;32544;52.832;13.816;2024-03-08T01:05:21;22.70;45.10
46784;DHT22;32544;52.832;13.816;2024-03-08T01:06:24;22.70;45.10
46784;DHT22;32544;52.832;13.816;2024-03-08T01:07:24;22.70;45.10
46784;DHT22;32544;52.832;13.816;2024-03-08T01:08:25;22.70;45.10
46784;DHT22;32544;52.832;13.816;2024-03-08T01:09:25;22.70;45.10
46784;DHT22;32544;52.832;13.816;2024-03-08T01:10:27;22.70;45.20
46784;DHT22;32544;52.832;13.816;2024-03-08T01:11:28;22.70;45.10
46784;DHT22;32544;52.832;13.816;2024-03-08T01:12:28;22.70;45.10
46784;DHT22;32544;52.832;13.816;2024-03-08T01:13:29;22.70;45.10
46784;DHT22;32544;52.832;13.816;2024-03-08T01:14:30;22.80;45.20
46784;DHT22;32544;52.832;13.816;2024-03-08T01:15:31;22.70;45.10
46784;DHT22;32544;52.832;13.816;2024-03-08T01:16:31;22.80;45.20
46784;DHT22;32544;52.832;13.816;2024-03-08T01:17:33;22.80;45.20
46784;DHT22;32544;52.832;13.816;2024-03-08T01:18:34;22.80;45.20
46784;DHT22;32544;52.832;13.816;2024-03-08T01:19:34;22.80;45.20
46784;DHT22;32544;52.832;13.816;2024-03-08T01:20:35;22.80;45.20
46784;DHT22;32544;52.832;13.816;2024-03-08T01:21:36;22.80;45.20
46784;DHT22;32544;52.832;13.816;2024-03-08T01:22:36;22.80;45.20
46784;DHT22;32544;52.832;13.816;2024-03-08T01:23:37;22.70;45.10
46784;DHT22;32544;52.832;13.816;2024-03-08T01:24:38;22.80;45.20
46784;DHT22;32544;52.832;13.816;2024-03-08T01:25:39;22.80;45.20
46784;DHT22;32544;52.832;13.816;2024-03-08T01:26:39;22.80;45.20
46784;DHT22;32544;52.832;13.816;2024-03-08T01:27:40;22.80;45.20
46784;DHT22;32544;52.832;13.816;2024-03-08T01:28:40;22.80;45.20
46784;DHT22;32544;52.832;13.816;2024-03-08T01:29:42;22.80;45.20
46784;DHT22;32544;52.832;13.816;2024-03-08T01:30:42;22.80;45.10
46784;DHT22;32544;52.832;13.816;2024-03-08T01:31:43;22.80;45.20
46784;DHT22;32544;52.832;13.816;2024-03-08T01:32:43;22.80;45.10
46784;DHT22;32544;52.832;13.816;2024-03-08T01:33:44;22.80;45.10
46784;DHT22;32544;52.832;13.816;2024-03-08T01:34:44;22.80;45.10
46784;DHT22;32544;52.832;13.816;2024-03-08T01:35:45;22.80;45.20
46784;DHT22;32544;52.832;13.816;2024-03-08T01:36:46;22.80;45.10
46784;DHT22;32544;52.832;13.816;2024-03-08T01:37:46;22.80;45.10
46784;DHT22;32544;52.832;13.816;2024-03-08T01:38:48;22.80;45.20
46784;DHT22;32544;52.832;13.816;2024-03-08T01:39:48;22.80;45.20
46784;DHT22;32544;52.832;13.816;2024-03-08T01:40:49;22.80;45.20
46784;DHT22;32544;52.832;13.816;2024-03-08T01:41:50;22.80;45.20
46784;DHT22;32544;52.832;13.816;2024-03-08T01:42:50;22.80;45.20
46784;DHT22;32544;52.832;13.816;2024-03-08T01:43:51;22.80;45.20
46784;DHT22;32544;52.832;13.816;2024-03-08T01:44:53;22.80;45.20
46784;DHT22;32544;52.832;13.816;2024-03-08T01:45:55;22.80;45.20
46784;DHT22;32544;52.832;13.816;2024-03-08T01:46:58;22.80;45.20
46784;DHT22;32544;52.832;13.816;2024-03-08T01:47:58;22.80;45.20
46784;DHT22;32544;52.832;13.816;2024-03-08T01:48:59;22.80;45.20
46784;DHT22;32544;52.832;13.816;2024-03-08T01:50:01;22.80;45.20
46784;DHT22;32544;52.832;13.816;2024-03-08T01:51:03;22.80;45.20
46784;DHT22;32544;52.832;13.816;2024-03-08T01:52:04;22.80;45.20
46784;DHT22;32544;52.832;13.816;2024-03-08T01:53:05;22.80;45.20
46784;DHT22;32544;52.832;13.816;2024-03-08T01:54:06;22.80;45.20
46784;DHT22;32544;52.832;13.816;2024-03-08T01:55:07;22.80;45.20
46784;DHT22;32544;52.832;13.816;2024-03-08T01:56:08;22.80;45.20
46784;DHT22;32544;52.832;13.816;2024-03-08T01:57:09;22.80;45.20
46784;DHT22;32544;52.832;13.816;2024-03-08T01:58:09;22.80;45.20
46784;DHT22;32544;52.832;13.816;2024-03-08T01:59:11;22.80;45.20
46784;DHT22;32544;52.832;13.816;2024-03-08T02:00:11;22.80;45.20
46784;DHT22;32544;52.832;13.816;2024-03-08T02:01:12;22.80;45.20
46784;DHT22;32544;52.832;13.816;2024-03-08T02:02:16;22.80;45.30
46784;DHT22;32544;52.832;13.816;2024-03-08T02:03:17;22.80;45.30
46784;DHT22;32544;52.832;13.816;2024-03-08T02:04:18;22.80;45.20
46784;DHT22;32544;52.832;13.816;2024-03-08T02:05:18;22.80;45.20
46784;DHT22;32544;52.832;13.816;2024-03-08T02:06:19;22.80;45.20
46784;DHT22;32544;52.832;13.816;2024-03-08T02:07:19;22.80;45.20
46784;DHT22;32544;52.832;13.816;2024-03-08T02:08:22;22.80;45.20
46784;DHT22;32544;52.832;13.816;2024-03-08T02:09:23;22.80;45.20
46784;DHT22;32544;52.832;13.816;2024-03-08T02:10:25;22.80;45.20
46784;DHT22;32544;52.832;13.816;2024-03-08T02:11:25;22.80;45.20
46784;DHT22;32544;52.832;13.816;2024-03-08T02:12:26;22.80;45.30
46784;DHT22;32544;52.832;13.816;2024-03-08T02:13:27;22.80;45.30
46784;DHT22;32544;52.832;13.816;2024-03-08T02:14:28;22.80;45.30
46784;DHT22;32544;52.832;13.816;2024-03-08T02:16:48;22.80;45.30
46784;DHT22;32544;52.832;13.816;2024-03-08T02:17:48;22.80;45.30
46784;DHT22;32544;52.832;13.816;2024-03-08T02:18:49;22.80;45.30
46784;DHT22;32544;52.832;13.816;2024-03-08T02:19:50;22.80;45.30
46784;DHT22;32544;52.832;13.816;2024-03-08T02:21:53;22.80;45.30
46784;DHT22;32544;52.832;13.816;2024-03-08T02:22:54;22.80;45.30
46784;DHT22;32544;52.832;13.816;2024-03-08T02:23:55;22.80;45.30
46784;DHT22;32544;52.832;13.816;2024-03-08T02:24:56;22.80;45.30
46784;DHT22;32544;52.832;13.816;2024-03-08T02:25:56;22.80;45.30
46784;DHT22;32544;52.832;13.816;2024-03-08T02:26:57;22.80;45.30
46784;DHT22;32544;52.832;13.816;2024-03-08T02:27:57;22.80;45.30
46784;DHT22;32544;52.832;13.816;2024-03-08T02:28:58;22.80;45.30
46784;DHT22;32544;52.832;13.816;2024-03-08T02:29:59;22.80;45.30
46784;DHT22;32544;52.832;13.816;2024-03-08T02:31:00;22.80;45.30
46784;DHT22;32544;52.832;13.816;2024-03-08T02:32:00;22.80;45.30
46784;DHT22;32544;52.832;13.816;2024-03-08T02:33:01;22.80;45.30
46784;DHT22;32544;52.832;13.816;2024-03-08T02:34:01;22.80;45.30
46784;DHT22;32544;52.832;13.816;2024-03-08T02:35:02;22.80;45.30
46784;DHT22;32544;52.832;13.816;2024-03-08T02:36:03;22.80;45.30
46784;DHT22;32544;52.832;13.816;2024-03-08T02:37:04;22.80;45.30
46784;DHT22;32544;52.832;13.816;2024-03-08T02:38:04;22.80;45.30
46784;DHT22;32544;52.832;13.816;2024-03-08T02:39:05;22.80;45.30
46784;DHT22;32544;52.832;13.816;2024-03-08T02:40:06;22.80;45.30
46784;DHT22;32544;52.832;13.816;2024-03-08T02:41:07;22.80;45.30
46784;DHT22;32544;52.832;13.816;2024-03-08T02:42:09;22.80;45.30
46784;DHT22;32544;52.832;13.816;2024-03-08T02:43:09;22.80;45.30
46784;DHT22;32544;52.832;13.816;2024-03-08T02:44:10;22.80;45.30
46784;DHT22;32544;52.832;13.816;2024-03-08T02:45:12;22.80;45.90
46784;DHT22;32544;52.832;13.816;2024-03-08T02:46:13;22.80;45.30
46784;DHT22;32544;52.832;13.816;2024-03-08T02:47:13;22.80;45.30
46784;DHT22;32544;52.832;13.816;2024-03-08T02:48:14;22.80;45.30
46784;DHT22;32544;52.832;13.816;2024-03-08T02:49:15;22.80;45.30
46784;DHT22;32544;52.832;13.816;2024-03-08T02:50:16;22.80;45.30
46784;DHT22;32544;52.832;13.816;2024-03-08T02:51:17;22.80;45.30
46784;DHT22;32544;52.832;13.816;2024-03-08T02:52:17;22.80;45.30
46784;DHT22;32544;52.832;13.816;2024-03-08T02:53:18;22.80;45.30
46784;DHT22;32544;52.832;13.816;2024-03-08T02:54:19;22.80;45.30
46784;DHT22;32544;52.832;13.816;2024-03-08T02:55:21;22.80;45.30
46784;DHT22;32544;52.832;13.816;2024-03-08T02:56:21;22.80;45.30
46784;DHT22;32544;52.832;13.816;2024-03-08T02:57:22;22.80;45.30
46784;DHT22;32544;52.832;13.816;2024-03-08T02:58:22;22.80;45.30
46784;DHT22;32544;52.832;13.816;2024-03-08T02:59:23;22.80;45.30
46784;DHT22;32544;52.832;13.816;2024-03-08T03:00:24;22.80;45.30
46784;DHT22;32544;52.832;13.816;2024-03-08T03:01:24;22.80;45.30
46784;DHT22;32544;52.832;13.816;2024-03-08T03:02:26;22.80;45.30
46784;DHT22;32544;52.832;13.816;2024-03-08T03:03:27;22.80;45.30
46784;DHT22;32544;52.832;13.816;2024-03-08T03:04:27;22.80;45.30
46784;DHT22;32544;52.832;13.816;2024-03-08T03:05:28;22.80;45.30
46784;DHT22;32544;52.832;13.816;2024-03-08T03:06:29;22.80;45.30
46784;DHT22;32544;52.832;13.816;2024-03-08T03:07:34;22.80;45.30
46784;DHT22;32544;52.832;13.816;2024-03-08T03:08:35;22.80;45.30
46784;DHT22;32544;52.832;13.816;2024-03-08T03:09:35;22.80;45.30
46784;DHT22;32544;52.832;13.816;2024-03-08T03:10:36;22.80;45.30
46784;DHT22;32544;52.832;13.816;2024-03-08T03:11:36;22.80;45.20
46784;DHT22;32544;52.832;13.816;2024-03-08T03:12:37;22.80;45.10
46784;DHT22;32544;52.832;13.816;2024-03-08T03:13:39;22.80;45.10
46784;DHT22;32544;52.832;13.816;2024-03-08T03:14:39;22.80;45.00
46784;DHT22;32544;52.832;13.816;2024-03-08T03:15:40;22.80;45.00
46784;DHT22;32544;52.832;13.816;2024-03-08T03:16:43;22.80;45.00
46784;DHT22;32544;52.832;13.816;2024-03-08T03:17:47;22.80;45.00
46784;DHT22;32544;52.832;13.816;2024-03-08T03:18:48;22.80;45.00
46784;DHT22;32544;52.832;13.816;2024-03-08T03:19:48;22.80;45.00
46784;DHT22;32544;52.832;13.816;2024-03-08T03:20:49;22.80;45.00
46784;DHT22;32544;52.832;13.816;2024-03-08T03:21:49;22.80;45.00
46784;DHT22;32544;52.832;13.816;2024-03-08T03:22:50;22.80;45.00
46784;DHT22;32544;52.832;13.816;2024-03-08T03:23:52;22.80;45.00
46784;DHT22;32544;52.832;13.816;2024-03-08T03:24:53;22.80;45.00
46784;DHT22;32544;52.832;13.816;2024-03-08T03:25:53;22.80;45.00
46784;DHT22;32544;52.832;13.816;2024-03-08T03:26:57;22.80;45.10
46784;DHT22;32544;52.832;13.816;2024-03-08T03:27:58;22.80;45.10
46784;DHT22;32544;52.832;13.816;2024-03-08T03:28:58;22.80;45.00
46784;DHT22;32544;52.832;13.816;2024-03-08T03:30:01;22.80;45.00
46784;DHT22;32544;52.832;13.816;2024-03-08T03:31:21;22.80;45.10
46784;DHT22;32544;52.832;13.816;2024-03-08T03:32:24;22.80;45.10
46784;DHT22;32544;52.832;13.816;2024-03-08T03:33:25;22.80;45.10
46784;DHT22;32544;52.832;13.816;2024-03-08T03:34:25;22.70;45.00
46784;DHT22;32544;52.832;13.816;2024-03-08T03:35:26;22.80;45.10
46784;DHT22;32544;52.832;13.816;2024-03-08T03:36:27;22.80;45.10
46784;DHT22;32544;52.832;13.816;2024-03-08T03:37:31;22.70;45.10
46784;DHT22;32544;52.832;13.816;2024-03-08T03:38:32;22.70;45.00
46784;DHT22;32544;52.832;13.816;2024-03-08T03:39:32;22.70;45.10
46784;DHT22;32544;52.832;13.816;2024-03-08T03:40:34;22.70;45.10
46784;DHT22;32544;52.832;13.816;2024-03-08T03:41:35;22.70;45.10
46784;DHT22;32544;52.832;13.816;2024-03-08T03:42:35;22.70;45.10
46784;DHT22;32544;52.832;13.816;2024-03-08T03:43:38;22.70;45.10
46784;DHT22;32544;52.832;13.816;2024-03-08T03:44:39;22.70;45.10
46784;DHT22;32544;52.832;13.816;2024-03-08T03:45:39;22.70;45.10
46784;DHT22;32544;52.832;13.816;2024-03-08T03:46:42;22.70;45.10
46784;DHT22;32544;52.832;13.816;2024-03-08T03:47:44;22.70;45.10
46784;DHT22;32544;52.832;13.816;2024-03-08T03:48:45;22.70;45.10
46784;DHT22;32544;52.832;13.816;2024-03-08T03:49:45;22.70;45.10
46784;DHT22;32544;52.832;13.816;2024-03-08T03:50:47;22.70;45.10
46784;DHT22;32544;52.832;13.816;2024-03-08T03:51:47;22.70;45.10
46784;DHT22;32544;52.832;13.816;2024-03-08T03:52:48;22.70;45.10
46784;DHT22;32544;52.832;13.816;2024-03-08T03:53:49;22.70;45.10
46784;DHT22;32544;52.832;13.816;2024-03-08T03:54:49;22.70;45.10
46784;DHT22;32544;52.832;13.816;2024-03-08T03:55:50;22.70;45.20
46784;DHT22;32544;52.832;13.816;2024-03-08T03:56:50;22.70;45.20
46784;DHT22;32544;52.832;13.816;2024-03-08T03:57:53;22.70;45.20
46784;DHT22;32544;52.832;13.816;2024-03-08T03:58:54;22.70;45.20
46784;DHT22;32544;52.832;13.816;2024-03-08T03:59:55;22.70;45.20
46784;DHT22;32544;52.832;13.816;2024-03-08T04:00:55;22.70;45.20
46784;DHT22;32544;52.832;13.816;2024-03-08T04:01:56;22.70;45.20
46784;DHT22;32544;52.832;13.816;2024-03-08T04:02:56;22.70;45.20
46784;DHT22;32544;52.832;13.816;2024-03-08T04:04:00;22.70;45.20
46784;DHT22;32544;52.832;13.816;2024-03-08T04:05:01;22.70;45.20
46784;DHT22;32544;52.832;13.816;2024-03-08T04:06:05;22.70;45.20
46784;DHT22;32544;52.832;13.816;2024-03-08T04:07:06;22.70;45.20
46784;DHT22;32544;52.832;13.816;2024-03-08T04:08:07;22.70;45.20
46784;DHT22;32544;52.832;13.816;2024-03-08T04:09:07;22.70;45.20
46784;DHT22;32544;52.832;13.816;2024-03-08T04:10:08;22.70;45.20
46784;DHT22;32544;52.832;13.816;2024-03-08T04:11:09;22.70;45.30
46784;DHT22;32544;52.832;13.816;2024-03-08T04:12:09;22.70;45.30
46784;DHT22;32544;52.832;13.816;2024-03-08T04:13:10;22.70;45.30
46784;DHT22;32544;52.832;13.816;2024-03-08T04:14:11;22.70;45.30
46784;DHT22;32544;52.832;13.816;2024-03-08T04:15:11;22.70;45.20
46784;DHT22;32544;52.832;13.816;2024-03-08T04:16:12;22.70;45.20
46784;DHT22;32544;52.832;13.816;2024-03-08T04:17:12;22.70;45.20
46784;DHT22;32544;52.832;13.816;2024-03-08T04:18:13;22.70;45.20
46784;DHT22;32544;52.832;13.816;2024-03-08T04:19:14;22.70;45.30
46784;DHT22;32544;52.832;13.816;2024-03-08T04:20:15;22.70;45.30
46784;DHT22;32544;52.832;13.816;2024-03-08T04:21:15;22.70;45.30
46784;DHT22;32544;52.832;13.816;2024-03-08T04:22:16;22.70;45.30
46784;DHT22;32544;52.832;13.816;2024-03-08T04:23:17;22.70;45.30
46784;DHT22;32544;52.832;13.816;2024-03-08T04:24:18;22.70;45.30
46784;DHT22;32544;52.832;13.816;2024-03-08T04:25:18;22.70;45.20
46784;DHT22;32544;52.832;13.816;2024-03-08T04:26:20;22.70;45.90
46784;DHT22;32544;52.832;13.816;2024-03-08T04:27:21;22.70;45.20
46784;DHT22;32544;52.832;13.816;2024-03-08T04:28:21;22.70;45.20
46784;DHT22;32544;52.832;13.816;2024-03-08T04:29:22;22.70;45.20
46784;DHT22;32544;52.832;13.816;2024-03-08T04:30:22;22.70;45.20
46784;DHT22;32544;52.832;13.816;2024-03-08T04:31:23;22.70;45.20
46784;DHT22;32544;52.832;13.816;2024-03-08T04:32:23;22.70;45.20
46784;DHT22;32544;52.832;13.816;2024-03-08T04:33:24;22.70;45.30
46784;DHT22;32544;52.832;13.816;2024-03-08T04:34:24;22.70;45.30
46784;DHT22;32544;52.832;13.816;2024-03-08T04:35:25;22.70;45.30
46784;DHT22;32544;52.832;13.816;2024-03-08T04:36:26;22.70;45.30
46784;DHT22;32544;52.832;13.816;2024-03-08T04:37:26;22.70;45.30
46784;DHT22;32544;52.832;13.816;2024-03-08T04:38:28;22.70;45.20
46784;DHT22;32544;52.832;13.816;2024-03-08T04:39:28;22.70;45.20
46784;DHT22;32544;52.832;13.816;2024-03-08T04:40:29;22.70;45.20
46784;DHT22;32544;52.832;13.816;2024-03-08T04:41:30;22.70;45.20
46784;DHT22;32544;52.832;13.816;2024-03-08T04:42:34;22.70;45.20
46784;DHT22;32544;52.832;13.816;2024-03-08T04:43:35;22.70;45.20
46784;DHT22;32544;52.832;13.816;2024-03-08T04:44:36;22.70;45.20
46784;DHT22;32544;52.832;13.816;2024-03-08T04:45:38;22.70;45.20
46784;DHT22;32544;52.832;13.816;2024-03-08T04:46:39;22.70;45.30
46784;DHT22;32544;52.832;13.816;2024-03-08T04:47:40;22.70;45.20
46784;DHT22;32544;52.832;13.816;2024-03-08T04:48:40;22.70;45.20
46784;DHT22;32544;52.832;13.816;2024-03-08T04:49:42;22.70;45.30
46784;DHT22;32544;52.832;13.816;2024-03-08T04:50:43;22.70;45.20
46784;DHT22;32544;52.832;13.816;2024-03-08T04:51:45;22.70;45.20
46784;DHT22;32544;52.832;13.816;2024-03-08T04:52:46;22.70;45.30
46784;DHT22;32544;52.832;13.816;2024-03-08T04:53:48;22.80;45.30
46784;DHT22;32544;52.832;13.816;2024-03-08T04:54:48;22.70;45.20
46784;DHT22;32544;52.832;13.816;2024-03-08T04:55:49;22.80;45.30
46784;DHT22;32544;52.832;13.816;2024-03-08T04:56:49;22.80;45.30
46784;DHT22;32544;52.832;13.816;2024-03-08T04:57:50;22.80;45.30
46784;DHT22;32544;52.832;13.816;2024-03-08T04:58:50;22.80;45.30
46784;DHT22;32544;52.832;13.816;2024-03-08T04:59:51;22.80;45.30
46784;DHT22;32544;52.832;13.816;2024-03-08T05:00:52;22.80;45.30
46784;DHT22;32544;52.832;13.816;2024-03-08T05:01:52;22.70;45.20
46784;DHT22;32544;52.832;13.816;2024-03-08T05:02:53;22.80;45.30
46784;DHT22;32544;52.832;13.816;2024-03-08T05:03:53;22.80;45.30
46784;DHT22;32544;52.832;13.816;2024-03-08T05:04:55;22.80;45.30
46784;DHT22;32544;52.832;13.816;2024-03-08T05:05:56;22.80;45.30
46784;DHT22;32544;52.832;13.816;2024-03-08T05:06:56;22.80;45.30
46784;DHT22;32544;52.832;13.816;2024-03-08T05:07:57;22.80;45.30
46784;DHT22;32544;52.832;13.816;2024-03-08T05:08:58;22.80;45.30
46784;DHT22;32544;52.832;13.816;2024-03-08T05:09:58;22.70;45.20
46784;DHT22;32544;52.832;13.816;2024-03-08T05:10:59;22.70;45.30
46784;DHT22;32544;52.832;13.816;2024-03-08T05:12:03;22.70;45.20
46784;DHT22;32544;52.832;13.816;2024-03-08T05:13:04;22.70;45.30
46784;DHT22;32544;52.832;13.816;2024-03-08T05:14:05;22.70;45.30
46784;DHT22;32544;52.832;13.816;2024-03-08T05:15:05;22.70;45.30
46784;DHT22;32544;52.832;13.816;2024-03-08T05:16:07;22.70;45.30
46784;DHT22;32544;52.832;13.816;2024-03-08T05:17:08;22.70;45.30
46784;DHT22;32544;52.832;13.816;2024-03-08T05:18:09;22.70;45.30
46784;DHT22;32544;52.832;13.816;2024-03-08T05:19:11;22.70;45.40
46784;DHT22;32544;52.832;13.816;2024-03-08T05:20:12;22.70;45.30
46784;DHT22;32544;52.832;13.816;2024-03-08T05:21:13;22.70;45.30
46784;DHT22;32544;52.832;13.816;2024-03-08T05:22:14;22.70;45.40
46784;DHT22;32544;52.832;13.816;2024-03-08T05:23:14;22.70;45.40
46784;DHT22;32544;52.832;13.816;2024-03-08T05:24:15;22.70;45.30
46784;DHT22;32544;52.832;13.816;2024-03-08T05:25:16;22.70;45.30
46784;DHT22;32544;52.832;13.816;2024-03-08T05:26:18;22.70;45.30
46784;DHT22;32544;52.832;13.816;2024-03-08T05:27:18;22.70;45.40
46784;DHT22;32544;52.832;13.816;2024-03-08T05:28:19;22.70;45.30
46784;DHT22;32544;52.832;13.816;2024-03-08T05:29:20;22.70;45.30
46784;DHT22;32544;52.832;13.816;2024-03-08T05:30:20;22.70;45.40
46784;DHT22;32544;52.832;13.816;2024-03-08T05:31:22;22.70;45.40
46784;DHT22;32544;52.832;13.816;2024-03-08T05:32:23;22.70;45.40
46784;DHT22;32544;52.832;13.816;2024-03-08T05:33:25;22.70;45.40
46784;DHT22;32544;52.832;13.816;2024-03-08T05:34:25;22.70;45.40
46784;DHT22;32544;52.832;13.816;2024-03-08T05:35:28;22.70;45.40
46784;DHT22;32544;52.832;13.816;2024-03-08T05:36:29;22.70;45.40
46784;DHT22;32544;52.832;13.816;2024-03-08T05:37:30;22.70;45.40
46784;DHT22;32544;52.832;13.816;2024-03-08T05:38:31;22.70;45.40
46784;DHT22;32544;52.832;13.816;2024-03-08T05:39:32;22.70;45.40
46784;DHT22;32544;52.832;13.816;2024-03-08T05:40:32;22.70;45.40
46784;DHT22;32544;52.832;13.816;2024-03-08T05:41:33;22.70;45.40
46784;DHT22;32544;52.832;13.816;2024-03-08T05:42:35;22.70;45.40
46784;DHT22;32544;52.832;13.816;2024-03-08T05:43:35;22.70;45.40
46784;DHT22;32544;52.832;13.816;2024-03-08T05:44:36;22.70;45.40
46784;DHT22;32544;52.832;13.816;2024-03-08T05:45:36;22.70;45.40
46784;DHT22;32544;52.832;13.816;2024-03-08T05:46:37;22.70;45.40
46784;DHT22;32544;52.832;13.816;2024-03-08T05:47:38;22.70;45.40
46784;DHT22;32544;52.832;13.816;2024-03-08T05:48:39;22.70;45.40
46784;DHT22;32544;52.832;13.816;2024-03-08T05:49:40;22.70;45.40
46784;DHT22;32544;52.832;13.816;2024-03-08T05:50:40;22.70;45.40
46784;DHT22;32544;52.832;13.816;2024-03-08T05:51:41;22.70;45.40
46784;DHT22;32544;52.832;13.816;2024-03-08T05:52:41;22.60;45.40
46784;DHT22;32544;52.832;13.816;2024-03-08T05:53:42;22.70;45.40
46784;DHT22;32544;52.832;13.816;2024-03-08T05:54:43;22.70;45.40
46784;DHT22;32544;52.832;13.816;2024-03-08T05:55:45;22.70;45.40
46784;DHT22;32544;52.832;13.816;2024-03-08T05:56:46;22.70;45.40
46784;DHT22;32544;52.832;13.816;2024-03-08T05:57:47;22.70;45.40
46784;DHT22;32544;52.832;13.816;2024-03-08T05:58:48;22.70;45.40
46784;DHT22;32544;52.832;13.816;2024-03-08T05:59:50;22.70;45.40
46784;DHT22;32544;52.832;13.816;2024-03-08T06:00:51;22.70;45.40
46784;DHT22;32544;52.832;13.816;2024-03-08T06:01:51;22.70;45.40
46784;DHT22;32544;52.832;13.816;2024-03-08T06:02:52;22.70;45.40
46784;DHT22;32544;52.832;13.816;2024-03-08T06:03:53;22.70;45.40
46784;DHT22;32544;52.832;13.816;2024-03-08T06:04:55;22.70;45.40
46784;DHT22;32544;52.832;13.816;2024-03-08T06:05:56;22.70;45.40
46784;DHT22;32544;52.832;13.816;2024-03-08T06:06:57;22.70;45.40
46784;DHT22;32544;52.832;13.816;2024-03-08T06:07:58;22.70;45.40
46784;DHT22;32544;52.832;13.816;2024-03-08T06:08:59;22.70;45.40
46784;DHT22;32544;52.832;13.816;2024-03-08T06:09:59;22.70;45.40
46784;DHT22;32544;52.832;13.816;2024-03-08T06:11:00;22.70;45.40
46784;DHT22;32544;52.832;13.816;2024-03-08T06:12:02;22.70;45.40
46784;DHT22;32544;52.832;13.816;2024-03-08T06:13:05;22.70;45.40
46784;DHT22;32544;52.832;13.816;2024-03-08T06:14:05;22.70;45.40
46784;DHT22;32544;52.832;13.816;2024-03-08T06:15:06;22.70;45.40
46784;DHT22;32544;52.832;13.816;2024-03-08T06:16:07;22.70;45.40
46784;DHT22;32544;52.832;13.816;2024-03-08T06:17:08;22.70;45.40
46784;DHT22;32544;52.832;13.816;2024-03-08T06:18:09;22.70;45.40
46784;DHT22;32544;52.832;13.816;2024-03-08T06:19:12;22.70;45.40
46784;DHT22;32544;52.832;13.816;2024-03-08T06:20:12;22.70;45.40
46784;DHT22;32544;52.832;13.816;2024-03-08T06:21:13;22.70;45.40